sensor_id;sensor_type;location;lat;lon;timestamp;P1;durP1;ratioP1;P2;durP2;ratioP2
10851;SDS011;5479;52.046;6.314;2023-02-15T00:01:48;26.40;;;20.07;;
10851;SDS011;5479;52.046;6.314;2023-02-15T00:04:17;28.93;;;20.63;;
10851;SDS011;5479;52.046;6.314;2023-02-15T00:06:47;26.47;;;19.90;;
10851;SDS011;5479;52.046;6.314;2023-02-15T00:09:16;28.63;;;21.10;;
10851;SDS011;5479;52.046;6.314;2023-02-15T00:11:44;30.23;;;20.90;;
10851;SDS011;5479;52.046;6.314;2023-02-15T00:14:17;28.93;;;20.00;;
10851;SDS011;5479;52.046;6.314;2023-02-15T00:16:47;27.63;;;19.57;;
10851;SDS011;5479;52.046;6.314;2023-02-15T00:19:17;27.47;;;20.17;;
10851;SDS011;5479;52.046;6.314;2023-02-15T00:21:47;24.77;;;19.03;;
10851;SDS011;5479;52.046;6.314;2023-02-15T00:24:17;27.47;;;19.80;;
10851;SDS011;5479;52.046;6.314;2023-02-15T00:26:46;26.30;;;19.60;;
10851;SDS011;5479;52.046;6.314;2023-02-15T00:29:15;26.07;;;18.93;;
10851;SDS011;5479;52.046;6.314;2023-02-15T00:31:44;25.40;;;18.70;;
10851;SDS011;5479;52.046;6.314;2023-02-15T00:34:14;25.27;;;18.40;;
10851;SDS011;5479;52.046;6.314;2023-02-15T00:36:43;25.90;;;19.13;;
10851;SDS011;5479;52.046;6.314;2023-02-15T00:39:13;23.63;;;17.43;;
10851;SDS011;5479;52.046;6.314;2023-02-15T00:41:42;25.17;;;17.53;;
10851;SDS011;5479;52.046;6.314;2023-02-15T00:44:10;24.93;;;18.03;;
10851;SDS011;5479;52.046;6.314;2023-02-15T00:46:38;27.07;;;17.60;;
10851;SDS011;5479;52.046;6.314;2023-02-15T00:49:06;23.60;;;17.27;;
10851;SDS011;5479;52.046;6.314;2023-02-15T00:51:34;24.97;;;17.73;;
10851;SDS011;5479;52.046;6.314;2023-02-15T00:54:02;24.33;;;17.30;;
10851;SDS011;5479;52.046;6.314;2023-02-15T00:56:31;23.30;;;17.13;;
10851;SDS011;5479;52.046;6.314;2023-02-15T00:58:59;25.90;;;18.07;;
10851;SDS011;5479;52.046;6.314;2023-02-15T01:01:28;24.70;;;17.60;;
10851;SDS011;5479;52.046;6.314;2023-02-15T01:03:56;23.23;;;16.70;;
10851;SDS011;5479;52.046;6.314;2023-02-15T01:06:24;25.90;;;17.37;;
10851;SDS011;5479;52.046;6.314;2023-02-15T01:08:52;23.87;;;17.43;;
10851;SDS011;5479;52.046;6.314;2023-02-15T01:11:21;26.50;;;17.87;;
10851;SDS011;5479;52.046;6.314;2023-02-15T01:13:51;25.13;;;17.87;;
10851;SDS011;5479;52.046;6.314;2023-02-15T01:16:21;24.13;;;18.40;;
10851;SDS011;5479;52.046;6.314;2023-02-15T01:18:49;26.57;;;18.40;;
10851;SDS011;5479;52.046;6.314;2023-02-15T01:21:18;24.90;;;17.73;;
10851;SDS011;5479;52.046;6.314;2023-02-15T01:23:47;24.63;;;18.20;;
10851;SDS011;5479;52.046;6.314;2023-02-15T01:26:16;28.60;;;19.83;;
10851;SDS011;5479;52.046;6.314;2023-02-15T01:28:44;25.67;;;17.77;;
10851;SDS011;5479;52.046;6.314;2023-02-15T01:31:14;23.90;;;17.50;;
10851;SDS011;5479;52.046;6.314;2023-02-15T01:33:44;25.40;;;18.30;;
10851;SDS011;5479;52.046;6.314;2023-02-15T01:36:12;25.17;;;18.20;;
10851;SDS011;5479;52.046;6.314;2023-02-15T01:38:41;22.33;;;16.77;;
10851;SDS011;5479;52.046;6.314;2023-02-15T01:41:09;24.73;;;17.27;;
10851;SDS011;5479;52.046;6.314;2023-02-15T01:43:50;24.43;;;17.50;;
10851;SDS011;5479;52.046;6.314;2023-02-15T01:46:24;22.50;;;16.30;;
10851;SDS011;5479;52.046;6.314;2023-02-15T01:48:56;22.80;;;16.40;;
10851;SDS011;5479;52.046;6.314;2023-02-15T01:51:29;22.20;;;16.10;;
10851;SDS011;5479;52.046;6.314;2023-02-15T01:54:01;21.40;;;15.93;;
10851;SDS011;5479;52.046;6.314;2023-02-15T01:56:34;23.43;;;16.83;;
10851;SDS011;5479;52.046;6.314;2023-02-15T01:59:06;23.20;;;16.03;;
10851;SDS011;5479;52.046;6.314;2023-02-15T02:01:38;23.47;;;16.10;;
10851;SDS011;5479;52.046;6.314;2023-02-15T02:04:08;21.93;;;15.97;;
10851;SDS011;5479;52.046;6.314;2023-02-15T02:06:40;21.87;;;16.30;;
10851;SDS011;5479;52.046;6.314;2023-02-15T02:09:08;23.97;;;16.97;;
10851;SDS011;5479;52.046;6.314;2023-02-15T02:11:37;23.57;;;16.27;;
10851;SDS011;5479;52.046;6.314;2023-02-15T02:14:08;22.80;;;16.33;;
10851;SDS011;5479;52.046;6.314;2023-02-15T02:16:40;20.97;;;15.50;;
10851;SDS011;5479;52.046;6.314;2023-02-15T02:19:22;22.47;;;16.17;;
10851;SDS011;5479;52.046;6.314;2023-02-15T02:22:16;23.70;;;16.03;;
10851;SDS011;5479;52.046;6.314;2023-02-15T02:25:13;22.60;;;16.00;;
10851;SDS011;5479;52.046;6.314;2023-02-15T02:28:14;23.67;;;16.73;;
10851;SDS011;5479;52.046;6.314;2023-02-15T02:31:05;23.33;;;16.03;;
10851;SDS011;5479;52.046;6.314;2023-02-15T02:33:50;20.00;;;14.33;;
10851;SDS011;5479;52.046;6.314;2023-02-15T02:36:25;21.27;;;15.53;;
10851;SDS011;5479;52.046;6.314;2023-02-15T02:39:10;23.63;;;16.23;;
10851;SDS011;5479;52.046;6.314;2023-02-15T02:41:46;22.53;;;15.83;;
10851;SDS011;5479;52.046;6.314;2023-02-15T02:44:24;21.90;;;15.53;;
10851;SDS011;5479;52.046;6.314;2023-02-15T02:46:57;22.33;;;15.93;;
10851;SDS011;5479;52.046;6.314;2023-02-15T02:49:30;20.27;;;14.67;;
10851;SDS011;5479;52.046;6.314;2023-02-15T02:52:00;20.70;;;15.33;;
10851;SDS011;5479;52.046;6.314;2023-02-15T02:54:29;21.47;;;15.73;;
10851;SDS011;5479;52.046;6.314;2023-02-15T02:57:01;22.63;;;15.40;;
10851;SDS011;5479;52.046;6.314;2023-02-15T02:59:36;21.03;;;15.20;;
10851;SDS011;5479;52.046;6.314;2023-02-15T03:02:10;22.43;;;15.93;;
10851;SDS011;5479;52.046;6.314;2023-02-15T03:04:46;20.63;;;14.67;;
10851;SDS011;5479;52.046;6.314;2023-02-15T03:07:24;20.77;;;14.67;;
10851;SDS011;5479;52.046;6.314;2023-02-15T03:09:56;22.90;;;15.53;;
10851;SDS011;5479;52.046;6.314;2023-02-15T03:12:28;22.13;;;15.37;;
10851;SDS011;5479;52.046;6.314;2023-02-15T03:14:59;19.87;;;14.87;;
10851;SDS011;5479;52.046;6.314;2023-02-15T03:17:31;21.07;;;15.63;;
10851;SDS011;5479;52.046;6.314;2023-02-15T03:20:04;19.53;;;14.07;;
10851;SDS011;5479;52.046;6.314;2023-02-15T03:22:37;19.47;;;14.13;;
10851;SDS011;5479;52.046;6.314;2023-02-15T03:25:10;23.77;;;16.87;;
10851;SDS011;5479;52.046;6.314;2023-02-15T03:27:45;23.67;;;16.37;;
10851;SDS011;5479;52.046;6.314;2023-02-15T03:30:15;22.43;;;16.37;;
10851;SDS011;5479;52.046;6.314;2023-02-15T03:32:49;22.07;;;15.87;;
10851;SDS011;5479;52.046;6.314;2023-02-15T03:35:19;23.87;;;16.00;;
10851;SDS011;5479;52.046;6.314;2023-02-15T03:37:51;25.00;;;16.17;;
10851;SDS011;5479;52.046;6.314;2023-02-15T03:40:26;18.90;;;13.47;;
10851;SDS011;5479;52.046;6.314;2023-02-15T03:43:17;18.07;;;13.00;;
10851;SDS011;5479;52.046;6.314;2023-02-15T03:45:49;17.00;;;12.17;;
10851;SDS011;5479;52.046;6.314;2023-02-15T03:48:24;16.53;;;12.40;;
10851;SDS011;5479;52.046;6.314;2023-02-15T03:50:58;16.23;;;12.23;;
10851;SDS011;5479;52.046;6.314;2023-02-15T03:53:47;16.70;;;12.63;;
10851;SDS011;5479;52.046;6.314;2023-02-15T03:56:16;19.40;;;13.93;;
10851;SDS011;5479;52.046;6.314;2023-02-15T03:58:44;17.23;;;12.77;;
10851;SDS011;5479;52.046;6.314;2023-02-15T04:01:32;17.97;;;13.27;;
10851;SDS011;5479;52.046;6.314;2023-02-15T04:04:25;18.20;;;12.73;;
10851;SDS011;5479;52.046;6.314;2023-02-15T04:06:59;17.63;;;13.43;;
10851;SDS011;5479;52.046;6.314;2023-02-15T04:09:28;19.23;;;13.27;;
10851;SDS011;5479;52.046;6.314;2023-02-15T04:12:13;19.30;;;12.63;;
10851;SDS011;5479;52.046;6.314;2023-02-15T04:14:41;16.73;;;12.03;;
10851;SDS011;5479;52.046;6.314;2023-02-15T04:17:27;15.30;;;11.90;;
10851;SDS011;5479;52.046;6.314;2023-02-15T04:19:56;14.73;;;11.97;;
10851;SDS011;5479;52.046;6.314;2023-02-15T04:22:43;15.50;;;11.73;;
10851;SDS011;5479;52.046;6.314;2023-02-15T04:25:29;17.30;;;12.40;;
10851;SDS011;5479;52.046;6.314;2023-02-15T04:27:57;16.50;;;11.83;;
10851;SDS011;5479;52.046;6.314;2023-02-15T04:30:25;15.73;;;12.03;;
10851;SDS011;5479;52.046;6.314;2023-02-15T04:32:53;14.93;;;11.53;;
10851;SDS011;5479;52.046;6.314;2023-02-15T04:35:21;16.07;;;12.30;;
10851;SDS011;5479;52.046;6.314;2023-02-15T04:37:51;17.13;;;12.33;;
10851;SDS011;5479;52.046;6.314;2023-02-15T04:40:18;17.13;;;12.50;;
10851;SDS011;5479;52.046;6.314;2023-02-15T04:42:47;16.13;;;12.00;;
10851;SDS011;5479;52.046;6.314;2023-02-15T04:45:15;16.97;;;12.37;;
10851;SDS011;5479;52.046;6.314;2023-02-15T04:47:43;18.07;;;13.63;;
10851;SDS011;5479;52.046;6.314;2023-02-15T04:50:11;19.10;;;13.97;;
10851;SDS011;5479;52.046;6.314;2023-02-15T04:52:39;19.73;;;14.33;;
10851;SDS011;5479;52.046;6.314;2023-02-15T04:55:08;18.83;;;13.60;;
10851;SDS011;5479;52.046;6.314;2023-02-15T04:57:36;18.77;;;14.17;;
10851;SDS011;5479;52.046;6.314;2023-02-15T05:00:04;19.63;;;14.00;;
10851;SDS011;5479;52.046;6.314;2023-02-15T05:02:34;19.40;;;14.40;;
10851;SDS011;5479;52.046;6.314;2023-02-15T05:05:02;22.00;;;14.63;;
10851;SDS011;5479;52.046;6.314;2023-02-15T05:07:31;24.20;;;16.43;;
10851;SDS011;5479;52.046;6.314;2023-02-15T05:09:58;24.73;;;16.27;;
10851;SDS011;5479;52.046;6.314;2023-02-15T05:12:28;23.93;;;17.07;;
10851;SDS011;5479;52.046;6.314;2023-02-15T05:14:56;26.07;;;17.13;;
10851;SDS011;5479;52.046;6.314;2023-02-15T05:17:23;27.63;;;18.30;;
10851;SDS011;5479;52.046;6.314;2023-02-15T05:19:51;25.67;;;17.07;;
10851;SDS011;5479;52.046;6.314;2023-02-15T05:22:19;26.73;;;18.50;;
10851;SDS011;5479;52.046;6.314;2023-02-15T05:24:47;25.07;;;18.00;;
10851;SDS011;5479;52.046;6.314;2023-02-15T05:27:34;25.63;;;18.43;;
10851;SDS011;5479;52.046;6.314;2023-02-15T05:30:19;27.47;;;18.30;;
10851;SDS011;5479;52.046;6.314;2023-02-15T05:32:47;27.97;;;17.97;;
10851;SDS011;5479;52.046;6.314;2023-02-15T05:35:15;27.67;;;18.10;;
10851;SDS011;5479;52.046;6.314;2023-02-15T05:37:43;25.03;;;16.37;;
10851;SDS011;5479;52.046;6.314;2023-02-15T05:40:11;25.57;;;16.23;;
10851;SDS011;5479;52.046;6.314;2023-02-15T05:42:41;26.33;;;17.43;;
10851;SDS011;5479;52.046;6.314;2023-02-15T05:45:08;29.33;;;18.13;;
10851;SDS011;5479;52.046;6.314;2023-02-15T05:47:36;28.37;;;18.90;;
10851;SDS011;5479;52.046;6.314;2023-02-15T05:50:05;27.23;;;18.90;;
10851;SDS011;5479;52.046;6.314;2023-02-15T05:52:33;30.93;;;19.87;;
10851;SDS011;5479;52.046;6.314;2023-02-15T05:55:01;29.60;;;18.73;;
10851;SDS011;5479;52.046;6.314;2023-02-15T05:57:30;28.33;;;19.33;;
10851;SDS011;5479;52.046;6.314;2023-02-15T06:00:00;31.77;;;19.33;;
10851;SDS011;5479;52.046;6.314;2023-02-15T06:02:32;29.50;;;19.57;;
10851;SDS011;5479;52.046;6.314;2023-02-15T06:05:01;34.03;;;19.90;;
10851;SDS011;5479;52.046;6.314;2023-02-15T06:07:29;32.37;;;20.13;;
10851;SDS011;5479;52.046;6.314;2023-02-15T06:09:57;31.80;;;20.23;;
10851;SDS011;5479;52.046;6.314;2023-02-15T06:12:25;33.10;;;19.87;;
10851;SDS011;5479;52.046;6.314;2023-02-15T06:14:53;32.00;;;20.03;;
10851;SDS011;5479;52.046;6.314;2023-02-15T06:17:23;30.80;;;19.43;;
10851;SDS011;5479;52.046;6.314;2023-02-15T06:19:51;32.77;;;20.37;;
10851;SDS011;5479;52.046;6.314;2023-02-15T06:22:19;32.57;;;19.60;;
10851;SDS011;5479;52.046;6.314;2023-02-15T06:24:47;31.20;;;19.97;;
10851;SDS011;5479;52.046;6.314;2023-02-15T06:27:15;33.73;;;20.83;;
10851;SDS011;5479;52.046;6.314;2023-02-15T06:29:43;32.93;;;20.60;;
10851;SDS011;5479;52.046;6.314;2023-02-15T06:32:11;32.57;;;20.47;;
10851;SDS011;5479;52.046;6.314;2023-02-15T06:34:40;34.70;;;21.40;;
10851;SDS011;5479;52.046;6.314;2023-02-15T06:37:08;34.00;;;22.00;;
10851;SDS011;5479;52.046;6.314;2023-02-15T06:39:36;33.70;;;21.43;;
10851;SDS011;5479;52.046;6.314;2023-02-15T06:42:07;34.93;;;21.20;;
10851;SDS011;5479;52.046;6.314;2023-02-15T06:44:35;34.57;;;21.50;;
10851;SDS011;5479;52.046;6.314;2023-02-15T06:47:02;34.73;;;21.27;;
10851;SDS011;5479;52.046;6.314;2023-02-15T06:49:30;34.87;;;21.70;;
10851;SDS011;5479;52.046;6.314;2023-02-15T06:52:00;34.17;;;21.37;;
10851;SDS011;5479;52.046;6.314;2023-02-15T06:54:28;31.50;;;20.13;;
10851;SDS011;5479;52.046;6.314;2023-02-15T06:56:55;33.10;;;21.70;;
10851;SDS011;5479;52.046;6.314;2023-02-15T06:59:23;33.33;;;22.10;;
10851;SDS011;5479;52.046;6.314;2023-02-15T07:01:51;35.90;;;21.53;;
10851;SDS011;5479;52.046;6.314;2023-02-15T07:04:19;33.33;;;21.23;;
10851;SDS011;5479;52.046;6.314;2023-02-15T07:06:46;36.10;;;21.53;;
10851;SDS011;5479;52.046;6.314;2023-02-15T07:09:16;36.30;;;22.23;;
10851;SDS011;5479;52.046;6.314;2023-02-15T07:11:44;36.17;;;21.57;;
10851;SDS011;5479;52.046;6.314;2023-02-15T07:14:30;33.10;;;20.87;;
10851;SDS011;5479;52.046;6.314;2023-02-15T07:16:58;35.67;;;21.53;;
10851;SDS011;5479;52.046;6.314;2023-02-15T07:19:26;31.90;;;21.47;;
10851;SDS011;5479;52.046;6.314;2023-02-15T07:21:54;34.40;;;21.60;;
10851;SDS011;5479;52.046;6.314;2023-02-15T07:24:23;34.13;;;21.57;;
10851;SDS011;5479;52.046;6.314;2023-02-15T07:26:51;35.33;;;22.07;;
10851;SDS011;5479;52.046;6.314;2023-02-15T07:29:19;30.03;;;21.37;;
10851;SDS011;5479;52.046;6.314;2023-02-15T07:31:47;34.00;;;21.83;;
10851;SDS011;5479;52.046;6.314;2023-02-15T07:34:16;35.80;;;21.03;;
10851;SDS011;5479;52.046;6.314;2023-02-15T07:36:44;36.70;;;23.70;;
10851;SDS011;5479;52.046;6.314;2023-02-15T07:39:13;34.30;;;22.57;;
10851;SDS011;5479;52.046;6.314;2023-02-15T07:41:42;33.97;;;21.57;;
10851;SDS011;5479;52.046;6.314;2023-02-15T07:44:11;34.97;;;23.47;;
10851;SDS011;5479;52.046;6.314;2023-02-15T07:46:39;37.17;;;23.70;;
10851;SDS011;5479;52.046;6.314;2023-02-15T07:49:07;35.57;;;22.37;;
10851;SDS011;5479;52.046;6.314;2023-02-15T07:51:35;33.67;;;22.67;;
10851;SDS011;5479;52.046;6.314;2023-02-15T07:54:03;37.47;;;23.73;;
10851;SDS011;5479;52.046;6.314;2023-02-15T07:56:31;31.90;;;20.97;;
10851;SDS011;5479;52.046;6.314;2023-02-15T07:59:01;32.53;;;22.17;;
10851;SDS011;5479;52.046;6.314;2023-02-15T08:01:31;29.30;;;20.93;;
10851;SDS011;5479;52.046;6.314;2023-02-15T08:04:01;29.20;;;19.77;;
10851;SDS011;5479;52.046;6.314;2023-02-15T08:06:30;26.53;;;19.50;;
10851;SDS011;5479;52.046;6.314;2023-02-15T08:09:00;25.23;;;18.03;;
10851;SDS011;5479;52.046;6.314;2023-02-15T08:11:30;24.67;;;18.10;;
10851;SDS011;5479;52.046;6.314;2023-02-15T08:14:08;23.97;;;18.23;;
10851;SDS011;5479;52.046;6.314;2023-02-15T08:16:38;24.13;;;17.80;;
10851;SDS011;5479;52.046;6.314;2023-02-15T08:19:08;23.07;;;17.60;;
10851;SDS011;5479;52.046;6.314;2023-02-15T08:21:37;24.37;;;17.60;;
10851;SDS011;5479;52.046;6.314;2023-02-15T08:24:07;23.07;;;17.17;;
10851;SDS011;5479;52.046;6.314;2023-02-15T08:26:36;23.43;;;18.00;;
10851;SDS011;5479;52.046;6.314;2023-02-15T08:29:05;22.37;;;17.63;;
10851;SDS011;5479;52.046;6.314;2023-02-15T08:31:35;23.27;;;17.87;;
10851;SDS011;5479;52.046;6.314;2023-02-15T08:34:04;25.27;;;17.73;;
10851;SDS011;5479;52.046;6.314;2023-02-15T08:36:32;21.63;;;16.80;;
10851;SDS011;5479;52.046;6.314;2023-02-15T08:39:01;23.33;;;18.40;;
10851;SDS011;5479;52.046;6.314;2023-02-15T08:41:32;22.13;;;16.60;;
10851;SDS011;5479;52.046;6.314;2023-02-15T08:44:02;23.27;;;17.50;;
10851;SDS011;5479;52.046;6.314;2023-02-15T08:46:32;23.70;;;18.03;;
10851;SDS011;5479;52.046;6.314;2023-02-15T08:49:03;24.03;;;17.33;;
10851;SDS011;5479;52.046;6.314;2023-02-15T08:51:32;25.67;;;17.87;;
10851;SDS011;5479;52.046;6.314;2023-02-15T08:54:02;21.67;;;16.93;;
10851;SDS011;5479;52.046;6.314;2023-02-15T08:56:32;23.33;;;16.90;;
10851;SDS011;5479;52.046;6.314;2023-02-15T08:59:02;23.73;;;18.17;;
10851;SDS011;5479;52.046;6.314;2023-02-15T09:01:31;23.90;;;17.57;;
10851;SDS011;5479;52.046;6.314;2023-02-15T09:04:00;23.57;;;17.37;;
10851;SDS011;5479;52.046;6.314;2023-02-15T09:06:31;22.67;;;17.73;;
10851;SDS011;5479;52.046;6.314;2023-02-15T09:08:59;24.67;;;18.07;;
10851;SDS011;5479;52.046;6.314;2023-02-15T09:11:28;23.20;;;18.23;;
10851;SDS011;5479;52.046;6.314;2023-02-15T09:13:58;23.07;;;17.67;;
10851;SDS011;5479;52.046;6.314;2023-02-15T09:16:28;21.77;;;17.53;;
10851;SDS011;5479;52.046;6.314;2023-02-15T09:18:58;24.13;;;17.43;;
10851;SDS011;5479;52.046;6.314;2023-02-15T09:21:28;22.87;;;17.33;;
10851;SDS011;5479;52.046;6.314;2023-02-15T09:23:58;22.90;;;18.43;;
10851;SDS011;5479;52.046;6.314;2023-02-15T09:26:28;22.07;;;18.03;;
10851;SDS011;5479;52.046;6.314;2023-02-15T09:28:57;22.50;;;17.93;;
10851;SDS011;5479;52.046;6.314;2023-02-15T09:31:28;24.27;;;18.50;;
10851;SDS011;5479;52.046;6.314;2023-02-15T09:33:57;22.30;;;18.40;;
10851;SDS011;5479;52.046;6.314;2023-02-15T09:36:27;24.43;;;18.63;;
10851;SDS011;5479;52.046;6.314;2023-02-15T09:38:58;23.57;;;17.63;;
10851;SDS011;5479;52.046;6.314;2023-02-15T09:41:33;21.23;;;17.23;;
10851;SDS011;5479;52.046;6.314;2023-02-15T09:44:20;22.90;;;18.27;;
10851;SDS011;5479;52.046;6.314;2023-02-15T09:47:05;21.67;;;17.90;;
10851;SDS011;5479;52.046;6.314;2023-02-15T09:49:46;22.60;;;18.77;;
10851;SDS011;5479;52.046;6.314;2023-02-15T09:52:33;24.03;;;18.20;;
10851;SDS011;5479;52.046;6.314;2023-02-15T09:55:24;23.10;;;17.90;;
10851;SDS011;5479;52.046;6.314;2023-02-15T09:58:12;22.70;;;18.13;;
10851;SDS011;5479;52.046;6.314;2023-02-15T10:00:49;23.13;;;18.27;;
10851;SDS011;5479;52.046;6.314;2023-02-15T10:03:30;20.77;;;17.47;;
10851;SDS011;5479;52.046;6.314;2023-02-15T10:06:12;22.63;;;17.87;;
10851;SDS011;5479;52.046;6.314;2023-02-15T10:09:03;21.70;;;17.37;;
10851;SDS011;5479;52.046;6.314;2023-02-15T10:11:50;21.10;;;17.03;;
10851;SDS011;5479;52.046;6.314;2023-02-15T10:14:33;23.30;;;17.53;;
10851;SDS011;5479;52.046;6.314;2023-02-15T10:17:24;22.23;;;18.03;;
10851;SDS011;5479;52.046;6.314;2023-02-15T10:20:07;24.17;;;17.70;;
10851;SDS011;5479;52.046;6.314;2023-02-15T10:22:50;22.50;;;17.97;;
10851;SDS011;5479;52.046;6.314;2023-02-15T10:25:33;25.27;;;18.13;;
10851;SDS011;5479;52.046;6.314;2023-02-15T10:28:11;22.93;;;18.40;;
10851;SDS011;5479;52.046;6.314;2023-02-15T10:30:46;23.83;;;18.23;;
10851;SDS011;5479;52.046;6.314;2023-02-15T10:33:22;22.40;;;17.13;;
10851;SDS011;5479;52.046;6.314;2023-02-15T10:36:01;22.90;;;18.47;;
10851;SDS011;5479;52.046;6.314;2023-02-15T10:38:39;23.07;;;18.60;;
10851;SDS011;5479;52.046;6.314;2023-02-15T10:41:12;22.67;;;17.80;;
10851;SDS011;5479;52.046;6.314;2023-02-15T10:43:57;24.47;;;18.53;;
10851;SDS011;5479;52.046;6.314;2023-02-15T10:46:40;22.43;;;18.07;;
10851;SDS011;5479;52.046;6.314;2023-02-15T10:49:38;23.57;;;18.13;;
10851;SDS011;5479;52.046;6.314;2023-02-15T10:52:21;22.47;;;17.53;;
10851;SDS011;5479;52.046;6.314;2023-02-15T10:55:01;21.70;;;18.27;;
10851;SDS011;5479;52.046;6.314;2023-02-15T10:57:39;24.37;;;18.70;;
10851;SDS011;5479;52.046;6.314;2023-02-15T11:00:18;25.33;;;19.53;;
10851;SDS011;5479;52.046;6.314;2023-02-15T11:02:58;23.43;;;18.77;;
10851;SDS011;5479;52.046;6.314;2023-02-15T11:05:41;23.73;;;19.30;;
10851;SDS011;5479;52.046;6.314;2023-02-15T11:08:16;23.43;;;18.70;;
10851;SDS011;5479;52.046;6.314;2023-02-15T11:10:47;23.50;;;18.77;;
10851;SDS011;5479;52.046;6.314;2023-02-15T11:13:18;22.23;;;17.93;;
10851;SDS011;5479;52.046;6.314;2023-02-15T11:15:50;22.47;;;18.57;;
10851;SDS011;5479;52.046;6.314;2023-02-15T11:18:22;27.57;;;19.83;;
10851;SDS011;5479;52.046;6.314;2023-02-15T11:20:55;25.20;;;18.73;;
10851;SDS011;5479;52.046;6.314;2023-02-15T11:23:28;24.80;;;19.20;;
10851;SDS011;5479;52.046;6.314;2023-02-15T11:25:56;22.73;;;17.90;;
10851;SDS011;5479;52.046;6.314;2023-02-15T11:28:29;23.27;;;18.40;;
10851;SDS011;5479;52.046;6.314;2023-02-15T11:31:16;23.10;;;18.27;;
10851;SDS011;5479;52.046;6.314;2023-02-15T11:33:47;23.00;;;18.93;;
10851;SDS011;5479;52.046;6.314;2023-02-15T11:36:19;22.58;;;18.27;;
10851;SDS011;5479;52.046;6.314;2023-02-15T11:38:51;24.85;;;19.40;;
10851;SDS011;5479;52.046;6.314;2023-02-15T11:41:24;23.13;;;19.85;;
10851;SDS011;5479;52.046;6.314;2023-02-15T11:43:58;23.80;;;19.52;;
10851;SDS011;5479;52.046;6.314;2023-02-15T11:46:34;25.08;;;19.75;;
10851;SDS011;5479;52.046;6.314;2023-02-15T11:49:04;23.77;;;19.55;;
10851;SDS011;5479;52.046;6.314;2023-02-15T11:51:36;25.30;;;19.38;;
10851;SDS011;5479;52.046;6.314;2023-02-15T11:54:04;24.55;;;19.38;;
10851;SDS011;5479;52.046;6.314;2023-02-15T11:56:32;24.88;;;19.40;;
10851;SDS011;5479;52.046;6.314;2023-02-15T11:59:02;25.98;;;19.02;;
10851;SDS011;5479;52.046;6.314;2023-02-15T12:01:37;24.02;;;19.55;;
10851;SDS011;5479;52.046;6.314;2023-02-15T12:04:12;24.10;;;19.27;;
10851;SDS011;5479;52.046;6.314;2023-02-15T12:06:46;25.90;;;20.00;;
10851;SDS011;5479;52.046;6.314;2023-02-15T12:09:23;25.70;;;19.07;;
10851;SDS011;5479;52.046;6.314;2023-02-15T12:12:10;23.30;;;18.63;;
10851;SDS011;5479;52.046;6.314;2023-02-15T12:14:48;23.30;;;19.30;;
10851;SDS011;5479;52.046;6.314;2023-02-15T12:17:19;23.35;;;19.15;;
10851;SDS011;5479;52.046;6.314;2023-02-15T12:19:49;23.23;;;19.10;;
10851;SDS011;5479;52.046;6.314;2023-02-15T12:22:23;23.90;;;19.03;;
10851;SDS011;5479;52.046;6.314;2023-02-15T12:24:54;24.03;;;18.87;;
10851;SDS011;5479;52.046;6.314;2023-02-15T12:27:24;23.70;;;19.10;;
10851;SDS011;5479;52.046;6.314;2023-02-15T12:29:55;23.20;;;19.00;;
10851;SDS011;5479;52.046;6.314;2023-02-15T12:32:29;23.77;;;18.27;;
10851;SDS011;5479;52.046;6.314;2023-02-15T12:35:01;23.80;;;18.73;;
10851;SDS011;5479;52.046;6.314;2023-02-15T12:37:36;24.23;;;18.27;;
10851;SDS011;5479;52.046;6.314;2023-02-15T12:40:18;22.40;;;17.70;;
10851;SDS011;5479;52.046;6.314;2023-02-15T12:42:47;25.90;;;18.50;;
10851;SDS011;5479;52.046;6.314;2023-02-15T12:45:23;23.93;;;18.13;;
10851;SDS011;5479;52.046;6.314;2023-02-15T12:48:13;26.23;;;19.07;;
10851;SDS011;5479;52.046;6.314;2023-02-15T12:50:43;24.40;;;18.37;;
10851;SDS011;5479;52.046;6.314;2023-02-15T12:53:14;22.77;;;17.87;;
10851;SDS011;5479;52.046;6.314;2023-02-15T12:55:49;22.63;;;17.83;;
10851;SDS011;5479;52.046;6.314;2023-02-15T12:58:20;24.73;;;18.57;;
10851;SDS011;5479;52.046;6.314;2023-02-15T13:01:01;24.17;;;18.17;;
10851;SDS011;5479;52.046;6.314;2023-02-15T13:03:33;23.73;;;18.13;;
10851;SDS011;5479;52.046;6.314;2023-02-15T13:06:02;24.63;;;18.67;;
10851;SDS011;5479;52.046;6.314;2023-02-15T13:08:34;25.10;;;18.70;;
10851;SDS011;5479;52.046;6.314;2023-02-15T13:11:06;23.47;;;18.07;;
10851;SDS011;5479;52.046;6.314;2023-02-15T13:13:38;22.90;;;17.77;;
10851;SDS011;5479;52.046;6.314;2023-02-15T13:16:19;23.93;;;18.00;;
10851;SDS011;5479;52.046;6.314;2023-02-15T13:18:56;23.60;;;17.93;;
10851;SDS011;5479;52.046;6.314;2023-02-15T13:21:28;23.17;;;16.93;;
10851;SDS011;5479;52.046;6.314;2023-02-15T13:24:04;24.20;;;17.90;;
10851;SDS011;5479;52.046;6.314;2023-02-15T13:26:35;25.13;;;18.03;;
10851;SDS011;5479;52.046;6.314;2023-02-15T13:29:05;22.13;;;17.67;;
10851;SDS011;5479;52.046;6.314;2023-02-15T13:31:37;23.87;;;17.93;;
10851;SDS011;5479;52.046;6.314;2023-02-15T13:34:09;25.67;;;18.90;;
10851;SDS011;5479;52.046;6.314;2023-02-15T13:36:43;23.43;;;18.43;;
10851;SDS011;5479;52.046;6.314;2023-02-15T13:39:21;23.20;;;17.93;;
10851;SDS011;5479;52.046;6.314;2023-02-15T13:41:56;24.43;;;18.50;;
10851;SDS011;5479;52.046;6.314;2023-02-15T13:44:40;23.00;;;17.80;;
10851;SDS011;5479;52.046;6.314;2023-02-15T13:47:21;24.50;;;17.60;;
10851;SDS011;5479;52.046;6.314;2023-02-15T13:50:08;24.63;;;18.60;;
10851;SDS011;5479;52.046;6.314;2023-02-15T13:52:51;22.70;;;17.43;;
10851;SDS011;5479;52.046;6.314;2023-02-15T13:55:32;26.20;;;18.87;;
10851;SDS011;5479;52.046;6.314;2023-02-15T13:58:15;22.67;;;17.57;;
10851;SDS011;5479;52.046;6.314;2023-02-15T14:01:19;21.90;;;17.87;;
10851;SDS011;5479;52.046;6.314;2023-02-15T14:03:56;25.40;;;19.10;;
10851;SDS011;5479;52.046;6.314;2023-02-15T14:09:53;22.63;;;17.73;;
10851;SDS011;5479;52.046;6.314;2023-02-15T14:12:34;21.40;;;17.30;;
10851;SDS011;5479;52.046;6.314;2023-02-15T14:15:18;23.93;;;18.40;;
10851;SDS011;5479;52.046;6.314;2023-02-15T14:17:59;24.97;;;18.87;;
10851;SDS011;5479;52.046;6.314;2023-02-15T14:20:41;24.70;;;18.17;;
10851;SDS011;5479;52.046;6.314;2023-02-15T14:23:21;23.20;;;17.87;;
10851;SDS011;5479;52.046;6.314;2023-02-15T14:26:03;24.73;;;18.27;;
10851;SDS011;5479;52.046;6.314;2023-02-15T14:28:39;24.43;;;18.50;;
10851;SDS011;5479;52.046;6.314;2023-02-15T14:31:12;25.83;;;18.27;;
10851;SDS011;5479;52.046;6.314;2023-02-15T14:33:43;23.20;;;18.00;;
10851;SDS011;5479;52.046;6.314;2023-02-15T14:36:20;23.90;;;19.07;;
10851;SDS011;5479;52.046;6.314;2023-02-15T14:38:54;24.97;;;19.50;;
10851;SDS011;5479;52.046;6.314;2023-02-15T14:41:31;27.90;;;21.33;;
10851;SDS011;5479;52.046;6.314;2023-02-15T14:44:07;26.43;;;20.40;;
10851;SDS011;5479;52.046;6.314;2023-02-15T14:46:42;36.70;;;26.50;;
10851;SDS011;5479;52.046;6.314;2023-02-15T14:49:16;31.13;;;24.20;;
10851;SDS011;5479;52.046;6.314;2023-02-15T14:51:53;24.00;;;18.53;;
10851;SDS011;5479;52.046;6.314;2023-02-15T14:57:25;24.23;;;18.80;;
10851;SDS011;5479;52.046;6.314;2023-02-15T14:59:54;24.57;;;18.20;;
10851;SDS011;5479;52.046;6.314;2023-02-15T15:02:25;24.70;;;18.30;;
10851;SDS011;5479;52.046;6.314;2023-02-15T15:04:56;27.00;;;19.00;;
10851;SDS011;5479;52.046;6.314;2023-02-15T15:07:28;26.10;;;19.90;;
10851;SDS011;5479;52.046;6.314;2023-02-15T15:10:23;23.53;;;18.47;;
10851;SDS011;5479;52.046;6.314;2023-02-15T15:18:56;25.77;;;19.33;;
10851;SDS011;5479;52.046;6.314;2023-02-15T15:33:11;24.07;;;19.00;;